sensor_id;sensor_type;location;lat;lon;timestamp;temperature;humidity
19039;DHT22;9652;49.014;12.052;2023-06-22T00:01:18;22.40;70.00
19039;DHT22;9652;49.014;12.052;2023-06-22T00:03:46;22.30;70.00
19039;DHT22;9652;49.014;12.052;2023-06-22T00:06:13;22.30;70.00
19039;DHT22;9652;49.014;12.052;2023-06-22T00:08:41;22.30;70.10
19039;DHT22;9652;49.014;12.052;2023-06-22T00:11:08;22.30;70.20
19039;DHT22;9652;49.014;12.052;2023-06-22T00:13:38;22.30;70.30
19039;DHT22;9652;49.014;12.052;2023-06-22T00:16:05;22.20;70.50
19039;DHT22;9652;49.014;12.052;2023-06-22T00:18:32;22.20;70.40
19039;DHT22;9652;49.014;12.052;2023-06-22T00:21:00;22.20;70.50
19039;DHT22;9652;49.014;12.052;2023-06-22T00:23:27;22.20;70.50
19039;DHT22;9652;49.014;12.052;2023-06-22T00:25:54;22.10;70.60
19039;DHT22;9652;49.014;12.052;2023-06-22T00:28:21;22.10;70.70
19039;DHT22;9652;49.014;12.052;2023-06-22T00:30:50;22.10;70.70
19039;DHT22;9652;49.014;12.052;2023-06-22T00:33:18;22.10;70.80
19039;DHT22;9652;49.014;12.052;2023-06-22T00:35:45;22.10;70.80
19039;DHT22;9652;49.014;12.052;2023-06-22T00:38:12;22.10;70.90
19039;DHT22;9652;49.014;12.052;2023-06-22T00:40:41;22.10;70.90
19039;DHT22;9652;49.014;12.052;2023-06-22T00:43:08;22.10;71.00
19039;DHT22;9652;49.014;12.052;2023-06-22T00:45:35;22.00;71.00
19039;DHT22;9652;49.014;12.052;2023-06-22T00:48:05;22.00;71.10
19039;DHT22;9652;49.014;12.052;2023-06-22T00:50:34;22.00;71.20
19039;DHT22;9652;49.014;12.052;2023-06-22T00:53:04;22.00;71.10
19039;DHT22;9652;49.014;12.052;2023-06-22T00:55:34;22.00;71.30
19039;DHT22;9652;49.014;12.052;2023-06-22T00:58:04;22.00;71.20
19039;DHT22;9652;49.014;12.052;2023-06-22T01:00:35;21.90;71.20
19039;DHT22;9652;49.014;12.052;2023-06-22T01:03:04;21.90;71.30
19039;DHT22;9652;49.014;12.052;2023-06-22T01:05:34;21.90;71.40
19039;DHT22;9652;49.014;12.052;2023-06-22T01:08:12;21.90;71.30
19039;DHT22;9652;49.014;12.052;2023-06-22T01:10:51;21.90;71.70
19039;DHT22;9652;49.014;12.052;2023-06-22T01:13:27;21.90;71.40
19039;DHT22;9652;49.014;12.052;2023-06-22T01:16:02;21.80;71.50
19039;DHT22;9652;49.014;12.052;2023-06-22T01:18:35;21.80;71.50
19039;DHT22;9652;49.014;12.052;2023-06-22T01:21:06;21.80;71.60
19039;DHT22;9652;49.014;12.052;2023-06-22T01:23:50;21.80;71.40
19039;DHT22;9652;49.014;12.052;2023-06-22T01:26:30;21.80;71.70
19039;DHT22;9652;49.014;12.052;2023-06-22T01:29:05;21.70;71.50
19039;DHT22;9652;49.014;12.052;2023-06-22T01:31:35;21.70;71.30
19039;DHT22;9652;49.014;12.052;2023-06-22T01:34:04;21.70;71.30
19039;DHT22;9652;49.014;12.052;2023-06-22T01:36:35;21.70;71.60
19039;DHT22;9652;49.014;12.052;2023-06-22T01:39:05;21.70;71.50
19039;DHT22;9652;49.014;12.052;2023-06-22T01:41:36;21.60;71.50
19039;DHT22;9652;49.014;12.052;2023-06-22T01:44:06;21.70;71.70
19039;DHT22;9652;49.014;12.052;2023-06-22T01:46:36;21.60;71.70
19039;DHT22;9652;49.014;12.052;2023-06-22T01:49:06;21.60;71.80
19039;DHT22;9652;49.014;12.052;2023-06-22T01:51:35;21.60;71.80
19039;DHT22;9652;49.014;12.052;2023-06-22T01:54:03;21.50;71.80
19039;DHT22;9652;49.014;12.052;2023-06-22T01:56:32;21.50;71.80
19039;DHT22;9652;49.014;12.052;2023-06-22T01:59:07;21.50;72.00
19039;DHT22;9652;49.014;12.052;2023-06-22T02:01:43;21.50;72.30
19039;DHT22;9652;49.014;12.052;2023-06-22T02:04:19;21.50;72.30
19039;DHT22;9652;49.014;12.052;2023-06-22T02:06:53;21.50;72.50
19039;DHT22;9652;49.014;12.052;2023-06-22T02:09:23;21.40;72.30
19039;DHT22;9652;49.014;12.052;2023-06-22T02:11:56;21.40;72.10
19039;DHT22;9652;49.014;12.052;2023-06-22T02:14:26;21.40;72.20
19039;DHT22;9652;49.014;12.052;2023-06-22T02:16:54;21.40;72.30
19039;DHT22;9652;49.014;12.052;2023-06-22T02:19:25;21.40;72.20
19039;DHT22;9652;49.014;12.052;2023-06-22T02:21:53;21.40;72.20
19039;DHT22;9652;49.014;12.052;2023-06-22T02:24:20;21.40;72.30
19039;DHT22;9652;49.014;12.052;2023-06-22T02:26:49;21.40;72.30
19039;DHT22;9652;49.014;12.052;2023-06-22T02:29:16;21.30;72.30
19039;DHT22;9652;49.014;12.052;2023-06-22T02:31:44;21.30;72.30
19039;DHT22;9652;49.014;12.052;2023-06-22T02:34:12;21.30;72.60
19039;DHT22;9652;49.014;12.052;2023-06-22T02:36:44;21.30;72.60
19039;DHT22;9652;49.014;12.052;2023-06-22T02:39:17;21.30;72.70
19039;DHT22;9652;49.014;12.052;2023-06-22T02:41:45;21.30;72.70
19039;DHT22;9652;49.014;12.052;2023-06-22T02:44:12;21.30;73.50
19039;DHT22;9652;49.014;12.052;2023-06-22T02:46:40;21.20;72.60
19039;DHT22;9652;49.014;12.052;2023-06-22T02:49:09;21.20;72.70
19039;DHT22;9652;49.014;12.052;2023-06-22T02:51:38;21.20;72.80
19039;DHT22;9652;49.014;12.052;2023-06-22T02:54:08;21.20;72.90
19039;DHT22;9652;49.014;12.052;2023-06-22T02:56:36;21.20;72.80
19039;DHT22;9652;49.014;12.052;2023-06-22T02:59:03;21.20;72.80
19039;DHT22;9652;49.014;12.052;2023-06-22T03:01:37;21.20;72.80
19039;DHT22;9652;49.014;12.052;2023-06-22T03:04:09;21.10;72.80
19039;DHT22;9652;49.014;12.052;2023-06-22T03:06:36;21.10;73.00
19039;DHT22;9652;49.014;12.052;2023-06-22T03:09:06;21.10;73.00
19039;DHT22;9652;49.014;12.052;2023-06-22T03:11:35;21.10;73.00
19039;DHT22;9652;49.014;12.052;2023-06-22T03:14:02;21.10;73.10
19039;DHT22;9652;49.014;12.052;2023-06-22T03:16:29;21.00;73.10
19039;DHT22;9652;49.014;12.052;2023-06-22T03:18:57;21.00;73.20
19039;DHT22;9652;49.014;12.052;2023-06-22T03:21:27;21.00;73.30
19039;DHT22;9652;49.014;12.052;2023-06-22T03:23:55;21.00;73.60
19039;DHT22;9652;49.014;12.052;2023-06-22T03:26:22;21.00;73.50
19039;DHT22;9652;49.014;12.052;2023-06-22T03:28:52;21.00;73.50
19039;DHT22;9652;49.014;12.052;2023-06-22T03:31:19;21.00;73.60
19039;DHT22;9652;49.014;12.052;2023-06-22T03:33:47;21.00;73.70
19039;DHT22;9652;49.014;12.052;2023-06-22T03:36:15;21.00;73.70
19039;DHT22;9652;49.014;12.052;2023-06-22T03:38:46;21.00;73.70
19039;DHT22;9652;49.014;12.052;2023-06-22T03:41:14;21.00;73.80
19039;DHT22;9652;49.014;12.052;2023-06-22T03:43:42;21.00;73.70
19039;DHT22;9652;49.014;12.052;2023-06-22T03:46:09;21.00;73.80
19039;DHT22;9652;49.014;12.052;2023-06-22T03:48:36;21.00;73.80
19039;DHT22;9652;49.014;12.052;2023-06-22T03:51:04;21.00;73.90
19039;DHT22;9652;49.014;12.052;2023-06-22T03:53:31;21.00;73.90
19039;DHT22;9652;49.014;12.052;2023-06-22T03:56:00;21.00;73.90
19039;DHT22;9652;49.014;12.052;2023-06-22T03:58:27;21.00;74.10
19039;DHT22;9652;49.014;12.052;2023-06-22T04:00:58;21.00;74.10
19039;DHT22;9652;49.014;12.052;2023-06-22T04:03:26;21.10;74.20
19039;DHT22;9652;49.014;12.052;2023-06-22T04:05:53;21.10;74.30
19039;DHT22;9652;49.014;12.052;2023-06-22T04:08:20;21.10;74.30
19039;DHT22;9652;49.014;12.052;2023-06-22T04:10:47;21.20;74.40
19039;DHT22;9652;49.014;12.052;2023-06-22T04:13:16;21.20;74.50
19039;DHT22;9652;49.014;12.052;2023-06-22T04:15:43;21.20;74.50
19039;DHT22;9652;49.014;12.052;2023-06-22T04:18:10;21.20;74.50
19039;DHT22;9652;49.014;12.052;2023-06-22T04:20:37;21.30;74.70
19039;DHT22;9652;49.014;12.052;2023-06-22T04:23:04;21.30;74.70
19039;DHT22;9652;49.014;12.052;2023-06-22T04:25:31;21.30;74.70
19039;DHT22;9652;49.014;12.052;2023-06-22T04:27:58;21.40;74.90
19039;DHT22;9652;49.014;12.052;2023-06-22T04:30:32;21.50;74.90
19039;DHT22;9652;49.014;12.052;2023-06-22T04:32:59;21.50;74.90
19039;DHT22;9652;49.014;12.052;2023-06-22T04:35:26;21.60;74.80
19039;DHT22;9652;49.014;12.052;2023-06-22T04:37:57;21.60;74.70
19039;DHT22;9652;49.014;12.052;2023-06-22T04:40:25;21.70;74.70
19039;DHT22;9652;49.014;12.052;2023-06-22T04:42:52;21.70;74.40
19039;DHT22;9652;49.014;12.052;2023-06-22T04:45:20;21.80;74.40
19039;DHT22;9652;49.014;12.052;2023-06-22T04:47:49;21.80;74.40
19039;DHT22;9652;49.014;12.052;2023-06-22T04:50:16;21.90;74.50
19039;DHT22;9652;49.014;12.052;2023-06-22T04:52:46;21.90;74.30
19039;DHT22;9652;49.014;12.052;2023-06-22T04:55:14;21.90;74.10
19039;DHT22;9652;49.014;12.052;2023-06-22T04:57:43;22.00;74.30
19039;DHT22;9652;49.014;12.052;2023-06-22T05:00:14;22.00;74.30
19039;DHT22;9652;49.014;12.052;2023-06-22T05:02:43;22.00;74.40
19039;DHT22;9652;49.014;12.052;2023-06-22T05:05:13;22.00;74.50
19039;DHT22;9652;49.014;12.052;2023-06-22T05:07:41;22.10;74.60
19039;DHT22;9652;49.014;12.052;2023-06-22T05:10:10;22.10;74.40
19039;DHT22;9652;49.014;12.052;2023-06-22T05:12:38;22.20;74.40
19039;DHT22;9652;49.014;12.052;2023-06-22T05:15:07;22.20;74.40
19039;DHT22;9652;49.014;12.052;2023-06-22T05:17:35;22.30;74.60
19039;DHT22;9652;49.014;12.052;2023-06-22T05:20:09;22.30;74.70
19039;DHT22;9652;49.014;12.052;2023-06-22T05:22:38;22.40;74.80
19039;DHT22;9652;49.014;12.052;2023-06-22T05:25:07;22.40;74.80
19039;DHT22;9652;49.014;12.052;2023-06-22T05:27:35;22.50;74.80
19039;DHT22;9652;49.014;12.052;2023-06-22T05:30:06;22.60;74.70
19039;DHT22;9652;49.014;12.052;2023-06-22T05:32:34;22.70;74.70
19039;DHT22;9652;49.014;12.052;2023-06-22T05:35:01;22.70;74.60
19039;DHT22;9652;49.014;12.052;2023-06-22T05:37:28;22.80;74.70
19039;DHT22;9652;49.014;12.052;2023-06-22T05:39:57;22.90;74.70
19039;DHT22;9652;49.014;12.052;2023-06-22T05:42:24;22.90;74.70
19039;DHT22;9652;49.014;12.052;2023-06-22T05:44:52;23.00;74.50
19039;DHT22;9652;49.014;12.052;2023-06-22T05:47:19;23.10;74.50
19039;DHT22;9652;49.014;12.052;2023-06-22T05:49:46;23.20;74.40
19039;DHT22;9652;49.014;12.052;2023-06-22T05:52:13;23.30;74.30
19039;DHT22;9652;49.014;12.052;2023-06-22T05:54:41;23.30;74.20
19039;DHT22;9652;49.014;12.052;2023-06-22T05:57:09;23.40;74.40
19039;DHT22;9652;49.014;12.052;2023-06-22T05:59:37;23.50;73.90
19039;DHT22;9652;49.014;12.052;2023-06-22T06:02:04;23.60;73.90
19039;DHT22;9652;49.014;12.052;2023-06-22T06:04:32;23.60;73.80
19039;DHT22;9652;49.014;12.052;2023-06-22T06:06:59;23.70;73.80
19039;DHT22;9652;49.014;12.052;2023-06-22T06:09:26;23.80;73.60
19039;DHT22;9652;49.014;12.052;2023-06-22T06:11:53;23.80;73.40
19039;DHT22;9652;49.014;12.052;2023-06-22T06:14:22;23.90;73.30
19039;DHT22;9652;49.014;12.052;2023-06-22T06:16:49;24.00;73.10
19039;DHT22;9652;49.014;12.052;2023-06-22T06:19:16;24.00;72.80
19039;DHT22;9652;49.014;12.052;2023-06-22T06:21:43;24.10;72.80
19039;DHT22;9652;49.014;12.052;2023-06-22T06:24:10;24.20;72.70
19039;DHT22;9652;49.014;12.052;2023-06-22T06:26:37;24.20;72.60
19039;DHT22;9652;49.014;12.052;2023-06-22T06:29:04;24.30;72.50
19039;DHT22;9652;49.014;12.052;2023-06-22T06:31:32;24.40;72.50
19039;DHT22;9652;49.014;12.052;2023-06-22T06:33:59;24.40;72.20
19039;DHT22;9652;49.014;12.052;2023-06-22T06:36:26;24.50;72.30
19039;DHT22;9652;49.014;12.052;2023-06-22T06:38:53;24.60;72.30
19039;DHT22;9652;49.014;12.052;2023-06-22T06:41:20;24.70;72.30
19039;DHT22;9652;49.014;12.052;2023-06-22T06:43:47;24.70;72.20
19039;DHT22;9652;49.014;12.052;2023-06-22T06:46:14;24.90;72.00
19039;DHT22;9652;49.014;12.052;2023-06-22T06:48:43;25.00;71.80
19039;DHT22;9652;49.014;12.052;2023-06-22T06:51:10;25.10;71.60
19039;DHT22;9652;49.014;12.052;2023-06-22T06:53:37;25.10;71.50
19039;DHT22;9652;49.014;12.052;2023-06-22T06:56:05;25.20;71.30
19039;DHT22;9652;49.014;12.052;2023-06-22T06:58:32;25.30;71.10
19039;DHT22;9652;49.014;12.052;2023-06-22T07:00:59;25.40;70.90
19039;DHT22;9652;49.014;12.052;2023-06-22T07:03:26;25.50;70.90
19039;DHT22;9652;49.014;12.052;2023-06-22T07:05:54;25.60;70.60
19039;DHT22;9652;49.014;12.052;2023-06-22T07:08:21;25.70;70.40
19039;DHT22;9652;49.014;12.052;2023-06-22T07:10:48;25.70;70.20
19039;DHT22;9652;49.014;12.052;2023-06-22T07:13:15;25.80;70.20
19039;DHT22;9652;49.014;12.052;2023-06-22T07:15:42;25.90;70.00
19039;DHT22;9652;49.014;12.052;2023-06-22T07:18:09;26.00;69.80
19039;DHT22;9652;49.014;12.052;2023-06-22T07:20:36;26.00;69.60
19039;DHT22;9652;49.014;12.052;2023-06-22T07:23:06;26.10;69.60
19039;DHT22;9652;49.014;12.052;2023-06-22T07:25:33;26.20;69.40
19039;DHT22;9652;49.014;12.052;2023-06-22T07:28:02;26.30;69.30
19039;DHT22;9652;49.014;12.052;2023-06-22T07:30:31;26.30;68.80
19039;DHT22;9652;49.014;12.052;2023-06-22T07:33:01;26.40;68.50
19039;DHT22;9652;49.014;12.052;2023-06-22T07:35:29;26.50;68.30
19039;DHT22;9652;49.014;12.052;2023-06-22T07:37:57;26.60;68.00
19039;DHT22;9652;49.014;12.052;2023-06-22T07:40:25;26.70;67.80
19039;DHT22;9652;49.014;12.052;2023-06-22T07:42:52;26.80;67.60
19039;DHT22;9652;49.014;12.052;2023-06-22T07:45:19;26.80;67.30
19039;DHT22;9652;49.014;12.052;2023-06-22T07:47:47;26.90;67.10
19039;DHT22;9652;49.014;12.052;2023-06-22T07:50:14;27.00;66.60
19039;DHT22;9652;49.014;12.052;2023-06-22T07:52:41;27.10;66.40
19039;DHT22;9652;49.014;12.052;2023-06-22T07:55:08;27.20;66.20
19039;DHT22;9652;49.014;12.052;2023-06-22T07:57:37;27.30;65.90
19039;DHT22;9652;49.014;12.052;2023-06-22T08:00:05;27.40;65.80
19039;DHT22;9652;49.014;12.052;2023-06-22T08:02:38;27.50;65.50
19039;DHT22;9652;49.014;12.052;2023-06-22T08:05:06;27.60;65.50
19039;DHT22;9652;49.014;12.052;2023-06-22T08:07:35;27.70;65.00
19039;DHT22;9652;49.014;12.052;2023-06-22T08:10:03;27.80;64.90
19039;DHT22;9652;49.014;12.052;2023-06-22T08:12:31;27.90;64.50
19039;DHT22;9652;49.014;12.052;2023-06-22T08:15:00;28.00;64.30
19039;DHT22;9652;49.014;12.052;2023-06-22T08:17:27;28.10;63.90
19039;DHT22;9652;49.014;12.052;2023-06-22T08:19:54;28.20;63.40
19039;DHT22;9652;49.014;12.052;2023-06-22T08:22:21;28.30;63.10
19039;DHT22;9652;49.014;12.052;2023-06-22T08:24:48;28.50;62.90
19039;DHT22;9652;49.014;12.052;2023-06-22T08:27:15;28.60;62.20
19039;DHT22;9652;49.014;12.052;2023-06-22T08:29:44;28.70;61.70
19039;DHT22;9652;49.014;12.052;2023-06-22T08:32:13;28.80;61.60
19039;DHT22;9652;49.014;12.052;2023-06-22T08:34:40;28.90;60.70
19039;DHT22;9652;49.014;12.052;2023-06-22T08:37:08;29.10;60.40
19039;DHT22;9652;49.014;12.052;2023-06-22T08:39:35;29.20;59.80
19039;DHT22;9652;49.014;12.052;2023-06-22T08:42:03;29.30;59.40
19039;DHT22;9652;49.014;12.052;2023-06-22T08:44:30;29.40;59.30
19039;DHT22;9652;49.014;12.052;2023-06-22T08:46:57;29.50;59.00
19039;DHT22;9652;49.014;12.052;2023-06-22T08:49:26;29.60;58.50
19039;DHT22;9652;49.014;12.052;2023-06-22T08:51:53;29.70;58.00
19039;DHT22;9652;49.014;12.052;2023-06-22T08:54:22;29.80;57.90
19039;DHT22;9652;49.014;12.052;2023-06-22T08:56:49;29.90;58.20
19039;DHT22;9652;49.014;12.052;2023-06-22T08:59:16;30.00;57.40
19039;DHT22;9652;49.014;12.052;2023-06-22T09:01:43;30.10;57.10
19039;DHT22;9652;49.014;12.052;2023-06-22T09:04:14;30.10;56.80
19039;DHT22;9652;49.014;12.052;2023-06-22T09:06:43;30.30;56.90
19039;DHT22;9652;49.014;12.052;2023-06-22T09:09:12;30.30;56.40
19039;DHT22;9652;49.014;12.052;2023-06-22T09:11:39;30.30;56.40
19039;DHT22;9652;49.014;12.052;2023-06-22T09:14:07;30.40;56.30
19039;DHT22;9652;49.014;12.052;2023-06-22T09:16:34;30.50;56.10
19039;DHT22;9652;49.014;12.052;2023-06-22T09:19:01;30.60;55.80
19039;DHT22;9652;49.014;12.052;2023-06-22T09:21:28;30.70;55.60
19039;DHT22;9652;49.014;12.052;2023-06-22T09:23:57;30.70;55.50
19039;DHT22;9652;49.014;12.052;2023-06-22T09:26:24;30.80;55.30
19039;DHT22;9652;49.014;12.052;2023-06-22T09:28:51;30.90;55.30
19039;DHT22;9652;49.014;12.052;2023-06-22T09:31:18;30.90;55.00
19039;DHT22;9652;49.014;12.052;2023-06-22T09:33:51;31.00;54.80
19039;DHT22;9652;49.014;12.052;2023-06-22T09:36:19;31.10;54.80
19039;DHT22;9652;49.014;12.052;2023-06-22T09:38:48;31.10;54.50
19039;DHT22;9652;49.014;12.052;2023-06-22T09:41:22;31.20;54.20
19039;DHT22;9652;49.014;12.052;2023-06-22T09:43:50;31.20;53.90
19039;DHT22;9652;49.014;12.052;2023-06-22T09:46:17;31.30;53.80
19039;DHT22;9652;49.014;12.052;2023-06-22T09:48:47;31.40;53.70
19039;DHT22;9652;49.014;12.052;2023-06-22T09:51:14;31.40;53.60
19039;DHT22;9652;49.014;12.052;2023-06-22T09:53:41;31.40;53.40
19039;DHT22;9652;49.014;12.052;2023-06-22T09:56:09;31.50;53.30
19039;DHT22;9652;49.014;12.052;2023-06-22T09:58:41;31.50;53.20
19039;DHT22;9652;49.014;12.052;2023-06-22T10:01:09;31.60;52.90
19039;DHT22;9652;49.014;12.052;2023-06-22T10:03:36;31.60;52.90
19039;DHT22;9652;49.014;12.052;2023-06-22T10:06:03;31.70;52.70
19039;DHT22;9652;49.014;12.052;2023-06-22T10:08:30;31.70;52.60
19039;DHT22;9652;49.014;12.052;2023-06-22T10:10:57;31.80;52.50
19039;DHT22;9652;49.014;12.052;2023-06-22T10:13:24;31.90;52.30
19039;DHT22;9652;49.014;12.052;2023-06-22T10:15:53;32.00;52.10
19039;DHT22;9652;49.014;12.052;2023-06-22T10:18:20;32.00;51.90
19039;DHT22;9652;49.014;12.052;2023-06-22T10:20:49;32.10;51.90
19039;DHT22;9652;49.014;12.052;2023-06-22T10:23:17;32.10;51.70
19039;DHT22;9652;49.014;12.052;2023-06-22T10:25:45;32.20;51.70
19039;DHT22;9652;49.014;12.052;2023-06-22T10:28:12;32.30;51.60
19039;DHT22;9652;49.014;12.052;2023-06-22T10:30:39;32.30;51.70
19039;DHT22;9652;49.014;12.052;2023-06-22T10:33:08;32.40;51.30
19039;DHT22;9652;49.014;12.052;2023-06-22T10:35:36;32.50;51.20
19039;DHT22;9652;49.014;12.052;2023-06-22T10:38:04;32.50;51.90
19039;DHT22;9652;49.014;12.052;2023-06-22T10:40:31;32.50;51.30
19039;DHT22;9652;49.014;12.052;2023-06-22T10:42:59;32.60;51.30
19039;DHT22;9652;49.014;12.052;2023-06-22T10:45:26;32.70;51.30
19039;DHT22;9652;49.014;12.052;2023-06-22T10:47:53;32.70;51.10
19039;DHT22;9652;49.014;12.052;2023-06-22T10:50:22;32.80;51.00
19039;DHT22;9652;49.014;12.052;2023-06-22T10:52:50;32.90;50.90
19039;DHT22;9652;49.014;12.052;2023-06-22T10:55:17;32.90;50.70
19039;DHT22;9652;49.014;12.052;2023-06-22T10:57:44;33.00;50.30
19039;DHT22;9652;49.014;12.052;2023-06-22T11:00:13;33.10;50.20
19039;DHT22;9652;49.014;12.052;2023-06-22T11:02:41;33.20;50.10
19039;DHT22;9652;49.014;12.052;2023-06-22T11:05:08;33.20;49.90
19039;DHT22;9652;49.014;12.052;2023-06-22T11:07:37;33.30;49.80
19039;DHT22;9652;49.014;12.052;2023-06-22T11:10:05;33.40;49.30
19039;DHT22;9652;49.014;12.052;2023-06-22T11:12:33;33.40;48.90
19039;DHT22;9652;49.014;12.052;2023-06-22T11:15:01;33.50;48.80
19039;DHT22;9652;49.014;12.052;2023-06-22T11:17:28;33.50;48.60
19039;DHT22;9652;49.014;12.052;2023-06-22T11:19:55;33.60;48.50
19039;DHT22;9652;49.014;12.052;2023-06-22T11:22:22;33.60;48.60
19039;DHT22;9652;49.014;12.052;2023-06-22T11:24:50;33.70;48.60
19039;DHT22;9652;49.014;12.052;2023-06-22T11:27:17;33.80;48.40
19039;DHT22;9652;49.014;12.052;2023-06-22T11:29:45;33.80;48.10
19039;DHT22;9652;49.014;12.052;2023-06-22T11:32:12;33.90;47.80
19039;DHT22;9652;49.014;12.052;2023-06-22T11:34:39;33.90;47.80
19039;DHT22;9652;49.014;12.052;2023-06-22T11:37:06;34.00;47.80
19039;DHT22;9652;49.014;12.052;2023-06-22T11:39:33;34.10;47.60
19039;DHT22;9652;49.014;12.052;2023-06-22T11:42:02;34.20;47.60
19039;DHT22;9652;49.014;12.052;2023-06-22T11:44:29;34.30;47.50
19039;DHT22;9652;49.014;12.052;2023-06-22T11:46:56;34.40;47.30
19039;DHT22;9652;49.014;12.052;2023-06-22T11:49:23;34.50;47.30
19039;DHT22;9652;49.014;12.052;2023-06-22T11:51:50;34.60;47.10
19039;DHT22;9652;49.014;12.052;2023-06-22T11:54:17;34.60;46.70
19039;DHT22;9652;49.014;12.052;2023-06-22T11:56:44;34.70;46.30
19039;DHT22;9652;49.014;12.052;2023-06-22T11:59:13;34.80;46.40
19039;DHT22;9652;49.014;12.052;2023-06-22T12:01:40;34.90;46.30
19039;DHT22;9652;49.014;12.052;2023-06-22T12:04:07;34.90;45.90
19039;DHT22;9652;49.014;12.052;2023-06-22T12:06:37;34.90;45.80
19039;DHT22;9652;49.014;12.052;2023-06-22T12:09:07;35.00;45.60
19039;DHT22;9652;49.014;12.052;2023-06-22T12:11:34;35.00;45.70
19039;DHT22;9652;49.014;12.052;2023-06-22T12:14:01;35.10;45.60
19039;DHT22;9652;49.014;12.052;2023-06-22T12:16:30;35.10;45.30
19039;DHT22;9652;49.014;12.052;2023-06-22T12:18:57;35.10;45.00
19039;DHT22;9652;49.014;12.052;2023-06-22T12:21:24;35.10;45.10
19039;DHT22;9652;49.014;12.052;2023-06-22T12:23:51;35.20;45.00
19039;DHT22;9652;49.014;12.052;2023-06-22T12:26:18;35.20;45.00
19039;DHT22;9652;49.014;12.052;2023-06-22T12:28:45;35.20;44.80
19039;DHT22;9652;49.014;12.052;2023-06-22T12:31:12;35.30;44.70
19039;DHT22;9652;49.014;12.052;2023-06-22T12:33:41;35.20;44.40
19039;DHT22;9652;49.014;12.052;2023-06-22T12:36:08;35.30;44.40
19039;DHT22;9652;49.014;12.052;2023-06-22T12:38:35;35.40;44.10
19039;DHT22;9652;49.014;12.052;2023-06-22T12:41:02;35.40;44.00
19039;DHT22;9652;49.014;12.052;2023-06-22T12:43:29;35.40;43.90
19039;DHT22;9652;49.014;12.052;2023-06-22T12:45:56;35.40;43.90
19039;DHT22;9652;49.014;12.052;2023-06-22T12:48:24;35.50;43.80
19039;DHT22;9652;49.014;12.052;2023-06-22T12:50:53;35.60;43.90
19039;DHT22;9652;49.014;12.052;2023-06-22T12:53:20;35.60;43.60
19039;DHT22;9652;49.014;12.052;2023-06-22T12:55:49;35.70;43.60
19039;DHT22;9652;49.014;12.052;2023-06-22T12:58:16;35.70;43.40
19039;DHT22;9652;49.014;12.052;2023-06-22T13:00:43;35.70;43.40
19039;DHT22;9652;49.014;12.052;2023-06-22T13:03:10;35.90;43.70
19039;DHT22;9652;49.014;12.052;2023-06-22T13:05:37;35.90;43.60
19039;DHT22;9652;49.014;12.052;2023-06-22T13:08:05;36.00;43.50
19039;DHT22;9652;49.014;12.052;2023-06-22T13:10:33;36.10;43.40
19039;DHT22;9652;49.014;12.052;2023-06-22T13:13:00;36.20;43.40
19039;DHT22;9652;49.014;12.052;2023-06-22T13:15:28;36.30;43.20
19039;DHT22;9652;49.014;12.052;2023-06-22T13:17:55;36.50;43.20
19039;DHT22;9652;49.014;12.052;2023-06-22T13:20:22;36.70;43.20
19039;DHT22;9652;49.014;12.052;2023-06-22T13:22:49;36.80;43.10
19039;DHT22;9652;49.014;12.052;2023-06-22T13:25:18;37.00;42.80
19039;DHT22;9652;49.014;12.052;2023-06-22T13:27:47;37.20;42.60
19039;DHT22;9652;49.014;12.052;2023-06-22T13:30:14;37.50;42.70
19039;DHT22;9652;49.014;12.052;2023-06-22T13:32:42;37.80;42.60
19039;DHT22;9652;49.014;12.052;2023-06-22T13:35:09;38.10;42.00
19039;DHT22;9652;49.014;12.052;2023-06-22T13:37:36;38.30;41.20
19039;DHT22;9652;49.014;12.052;2023-06-22T13:40:05;38.40;40.60
19039;DHT22;9652;49.014;12.052;2023-06-22T13:42:34;38.50;40.60
19039;DHT22;9652;49.014;12.052;2023-06-22T13:45:01;38.60;40.50
19039;DHT22;9652;49.014;12.052;2023-06-22T13:47:29;38.80;40.50
19039;DHT22;9652;49.014;12.052;2023-06-22T13:49:56;39.00;40.40
19039;DHT22;9652;49.014;12.052;2023-06-22T13:52:24;39.20;40.70
19039;DHT22;9652;49.014;12.052;2023-06-22T13:54:51;39.40;39.60
19039;DHT22;9652;49.014;12.052;2023-06-22T13:57:18;39.60;39.10
19039;DHT22;9652;49.014;12.052;2023-06-22T13:59:46;39.70;39.00
19039;DHT22;9652;49.014;12.052;2023-06-22T14:02:13;39.80;38.60
19039;DHT22;9652;49.014;12.052;2023-06-22T14:04:41;39.90;38.50
19039;DHT22;9652;49.014;12.052;2023-06-22T14:07:08;40.00;38.30
19039;DHT22;9652;49.014;12.052;2023-06-22T14:09:35;40.10;37.90
19039;DHT22;9652;49.014;12.052;2023-06-22T14:12:06;40.10;37.30
19039;DHT22;9652;49.014;12.052;2023-06-22T14:14:34;40.10;36.70
19039;DHT22;9652;49.014;12.052;2023-06-22T14:17:03;40.00;36.90
19039;DHT22;9652;49.014;12.052;2023-06-22T14:19:31;39.80;36.60
19039;DHT22;9652;49.014;12.052;2023-06-22T14:21:58;39.70;37.00
19039;DHT22;9652;49.014;12.052;2023-06-22T14:24:25;39.50;36.90
19039;DHT22;9652;49.014;12.052;2023-06-22T14:26:53;39.40;37.10
19039;DHT22;9652;49.014;12.052;2023-06-22T14:29:21;39.20;37.50
19039;DHT22;9652;49.014;12.052;2023-06-22T14:31:49;39.20;37.80
19039;DHT22;9652;49.014;12.052;2023-06-22T14:34:17;39.30;38.20
19039;DHT22;9652;49.014;12.052;2023-06-22T14:36:44;39.60;38.60
19039;DHT22;9652;49.014;12.052;2023-06-22T14:39:11;39.80;38.40
19039;DHT22;9652;49.014;12.052;2023-06-22T14:41:38;40.10;38.20
19039;DHT22;9652;49.014;12.052;2023-06-22T14:44:05;40.50;37.90
19039;DHT22;9652;49.014;12.052;2023-06-22T14:46:32;40.80;37.70
19039;DHT22;9652;49.014;12.052;2023-06-22T14:48:59;41.10;37.30
19039;DHT22;9652;49.014;12.052;2023-06-22T14:51:28;41.40;36.70
19039;DHT22;9652;49.014;12.052;2023-06-22T14:53:55;41.70;36.30
19039;DHT22;9652;49.014;12.052;2023-06-22T14:56:22;41.90;36.20
19039;DHT22;9652;49.014;12.052;2023-06-22T14:58:49;42.20;35.80
19039;DHT22;9652;49.014;12.052;2023-06-22T15:01:17;42.40;35.70
19039;DHT22;9652;49.014;12.052;2023-06-22T15:03:44;42.70;36.00
19039;DHT22;9652;49.014;12.052;2023-06-22T15:06:11;43.00;35.10
19039;DHT22;9652;49.014;12.052;2023-06-22T15:08:40;43.20;34.70
19039;DHT22;9652;49.014;12.052;2023-06-22T15:11:08;43.50;34.10
19039;DHT22;9652;49.014;12.052;2023-06-22T15:13:38;43.60;33.80
19039;DHT22;9652;49.014;12.052;2023-06-22T15:16:06;43.80;33.30
19039;DHT22;9652;49.014;12.052;2023-06-22T15:18:35;44.00;33.40
19039;DHT22;9652;49.014;12.052;2023-06-22T15:21:03;44.10;33.00
19039;DHT22;9652;49.014;12.052;2023-06-22T15:23:31;44.30;32.90
19039;DHT22;9652;49.014;12.052;2023-06-22T15:26:03;44.40;32.50
19039;DHT22;9652;49.014;12.052;2023-06-22T15:28:30;44.60;32.00
19039;DHT22;9652;49.014;12.052;2023-06-22T15:30:57;44.70;31.80
19039;DHT22;9652;49.014;12.052;2023-06-22T15:33:25;44.80;31.30
19039;DHT22;9652;49.014;12.052;2023-06-22T15:35:52;44.90;31.00